Flight Track Log - Related Links

Times and Time Zones

All times are in EDT time to prevent confusion due to time zone crossing. See the AWE1850 flight status page for this flight to view local times or setup timezone preferences in your user account.

Time Position Orientation Groundspeed Altitude Reporting Facility
EDT Latitude Longitude Course Direction KTS MPH feet Rate Location/Type
Sun 10:27:49 AM 28.3940 -81.2904 155° Southeast 188 216 1,500  Level FlightAware ADS-B
Sun 10:28:10 AM 28.3774 -81.2815 155° Southeast 216 249 2,200 2,900 Climbing FlightAware ADS-B
Sun 10:28:49 AM 28.3417 -81.2586 126° Southeast 232 267 4,400 3,100 Climbing FlightAware ADS-B
Sun 10:29:10 AM 28.3341 -81.2341 92° East 253 291 5,300 3,220 Climbing FlightAware ADS-B
Sun 10:29:30 AM 28.3349 -81.2070 86° East 255 293 6,600 3,450 Climbing FlightAware ADS-B
Sun 10:29:50 AM 28.3397 -81.1802 65° Northeast 260 299 7,600 2,644 Climbing FlightAware ADS-B
Sun 10:30:29 AM 28.3775 -81.1491 North 283 326 9,200 2,800 Climbing FlightAware ADS-B
Sun 10:30:50 AM 28.4028 -81.1548 340° North 280 322 10,400 2,357 Climbing FlightAware ADS-B
Sun 10:31:25 AM 28.4493 -81.1703 346° North 317 365 11,400 1,662 Climbing FlightAware ADS-B (KSFB)
Sun 10:31:55 AM 28.4925 -81.1836 344° North 362 417 12,200 1,969 Climbing FlightAware ADS-B (KSFB)
Sun 10:32:29 AM 28.5488 -81.2027 343° North 378 435 13,500 2,795 Climbing FlightAware ADS-B (KSFB)
Sun 10:33:08 AM 28.6177 -81.2257 343° North 381 438 15,600 2,743 Climbing FlightAware ADS-B (KSFB)
Sun 10:33:39 AM 28.6688 -81.2434 343° North 399 459 16,700 2,488 Climbing FlightAware ADS-B (KSFB)
Sun 10:33:49 AM 28.6841 -81.2483 344° North 398 458 17,300 3,200 Climbing FlightAware ADS-B (KSFB)
Sun 10:34:24 AM 28.7524 -81.2714 344° North 405 466 19,100 2,400 Climbing FlightAware ADS-B (KSFB)
Sun 10:34:59 AM 28.8164 -81.2933 343° North 418 481 20,100 2,400 Climbing FlightAware ADS-B (KSFB)
Sun 10:35:29 AM 28.8673 -81.3101 344° North 415 478 21,700 2,459 Climbing FlightAware ADS-B (KSFB)
Sun 10:36:00 AM 28.9294 -81.3311 343° North 431 496 22,600 2,118 Climbing FlightAware ADS-B (KSFB)
Sun 10:36:37 AM 28.9090 -81.3241 343° North 435 501 24,100 2,067 Climbing FlightAware ADS-B (KSFB)
Sun 10:37:30 AM 29.1026 -81.3889 347° North 451 519 25,700 2,071 Climbing FlightAware ADS-B
Sun 10:39:54 AM 29.1671 -81.3982 354° North 466 536 30,900 2,072 Climbing FlightAware ADS-B
Sun 10:41:39 AM 29.6274 -81.4501 353° North 454 522 34,300 1,765 Climbing FlightAware ADS-B
Sun 10:42:10 AM 29.6979 -81.4605 353° North 453 521 34,900 408 Climbing FlightAware ADS-B
Sun 10:43:22 AM 29.8523 -81.4844 352° North 455 524 35,000  Climbing FlightAware ADS-B
Sun 10:43:58 AM 29.9081 -81.4933 352° North 458 527 34,900 -63 Descending Jacksonville Center
Sun 10:44:58 AM 30.0336 -81.5131 352° North 458 527 34,900  Level Jacksonville Center
Sun 10:45:58 AM 30.1592 -81.5306 353° North 458 527 34,900 250 Level Jacksonville Center
Sun 10:46:58 AM 30.2906 -81.5383 357° North 463 533 35,400 1,200 Climbing Jacksonville Center
Sun 10:47:58 AM 30.4303 -81.5217 North 457 526 37,300 1,550 Climbing Jacksonville Center
Sun 10:48:58 AM 30.5556 -81.5081 North 457 526 38,500 800 Climbing Jacksonville Center
Sun 10:49:58 AM 30.6786 -81.4964 North 457 526 38,900 200 Climbing Jacksonville Center
Sun 10:50:58 AM 30.8036 -81.4825 North 457 526 38,900  Level Jacksonville Center
Sun 10:51:58 AM 30.9264 -81.4517 12° North 452 520 38,900  Level Jacksonville Center
Sun 10:52:58 AM 31.0342 -81.3747 31° Northeast 432 497 38,900  Level Jacksonville Center
Sun 10:53:58 AM 31.1439 -81.2931 32° Northeast 454 522 38,900  Level Jacksonville Center
Sun 10:54:58 AM 31.2533 -81.2133 32° Northeast 468 539 38,900 50 Level Jacksonville Center
Sun 10:55:58 AM 31.3528 -81.1433 31° Northeast 468 539 39,000 50 Climbing Jacksonville Center
Sun 10:56:58 AM 31.4769 -81.0583 30° Northeast 463 533 39,000  Level Jacksonville Center
Sun 10:57:58 AM 31.5781 -80.9856 32° Northeast 463 533 39,000  Level Jacksonville Center
Sun 10:58:58 AM 31.7000 -80.8975 32° Northeast 470 541 39,000  Level Jacksonville Center
Sun 10:59:58 AM 31.8133 -80.8194 30° Northeast 463 533 39,000  Level Jacksonville Center
Sun 11:00:58 AM 31.9144 -80.7461 32° Northeast 469 540 39,000  Level Jacksonville Center
Sun 11:01:58 AM 32.0383 -80.6600 31° Northeast 469 540 39,000  Level Jacksonville Center
Sun 11:02:58 AM 32.1392 -80.5864 32° Northeast 469 540 39,000 -50 Level Jacksonville Center
Sun 11:03:58 AM 32.2483 -80.5050 32° Northeast 464 534 38,900 -50 Descending Jacksonville Center
Sun 11:04:58 AM 32.3617 -80.4258 31° Northeast 464 534 38,900  Level Jacksonville Center
Sun 11:05:58 AM 32.4728 -80.3439 32° Northeast 464 534 38,900  Level Jacksonville Center
Sun 11:06:58 AM 32.5858 -80.2619 31° Northeast 464 534 38,900  Level Jacksonville Center
Sun 11:07:58 AM 32.6969 -80.1797 32° Northeast 464 534 38,900  Level Jacksonville Center
Sun 11:08:58 AM 32.8081 -80.0997 31° Northeast 464 534 38,900  Level Jacksonville Center
Sun 11:09:58 AM 32.9167 -80.0147 33° Northeast 464 534 38,900  Level Jacksonville Center
Sun 11:10:58 AM 33.0208 -79.9147 39° Northeast 469 540 38,900  Level Jacksonville Center
Sun 11:11:58 AM 33.1328 -79.8044 40° Northeast 478 550 38,900  Level Jacksonville Center
Sun 11:12:58 AM 33.2389 -79.7039 38° Northeast 478 550 38,900  Level Jacksonville Center
Sun 11:13:58 AM 33.3408 -79.6056 39° Northeast 478 550 38,900  Level Jacksonville Center
Sun 11:14:58 AM 33.4406 -79.5075 39° Northeast 478 550 38,900  Level Jacksonville Center
Sun 11:15:58 AM 33.5419 -79.4064 40° Northeast 473 544 38,900  Level Jacksonville Center
Sun 11:16:58 AM 33.6414 -79.3078 40° Northeast 473 544 38,900  Level Jacksonville Center
Sun 11:17:58 AM 33.7289 -79.2217 39° Northeast 465 535 38,900  Level Jacksonville Center
Sun 11:19:41 AM 33.9114 -79.0422 39° Northeast 461 531 38,900  Level Washington Center
Sun 11:20:43 AM 33.9928 -78.9631 39° Northeast 461 531 38,900  Level Washington Center
Sun 11:21:41 AM 34.1044 -78.8522 39° Northeast 469 540 38,900  Level Washington Center
Sun 11:22:41 AM 34.2053 -78.7483 40° Northeast 469 540 38,900  Level Washington Center
Sun 11:23:42 AM 34.3100 -78.6492 38° Northeast 469 540 38,900  Level Washington Center
Sun 11:24:42 AM 34.4108 -78.5472 40° Northeast 464 534 38,900  Level Washington Center
Sun 11:25:43 AM 34.5133 -78.4425 40° Northeast 464 534 38,900  Level Washington Center
Sun 11:26:43 AM 34.6161 -78.3403 39° Northeast 469 540 38,900 -359 Level Washington Center
Sun 11:27:40 AM 34.7186 -78.2350 40° Northeast 469 540 38,200 -706 Descending Washington Center
Sun 11:28:42 AM 34.8189 -78.1269 41° Northeast 469 540 37,500 -732 Descending Washington Center
Sun 11:29:43 AM 34.9214 -78.0186 41° Northeast 469 540 36,700 -807 Descending Washington Center
Sun 11:30:41 AM 35.0336 -77.9283 33° Northeast 475 547 35,900 -763 Descending Washington Center
Sun 11:31:41 AM 35.1458 -77.8425 32° Northeast 475 547 35,200 -450 Descending Washington Center
Sun 11:32:41 AM 35.2686 -77.7467 33° Northeast 475 547 35,000 -99 Descending Washington Center
Sun 11:33:42 AM 35.3786 -77.6631 32° Northeast 470 541 35,000 -197 Level Washington Center
Sun 11:34:43 AM 35.4867 -77.5767 33° Northeast 464 534 34,600 -595 Descending Washington Center
Sun 11:35:43 AM 35.5964 -77.4900 33° Northeast 464 534 33,800 -814 Descending Washington Center
Sun 11:36:41 AM 35.7042 -77.4031 33° Northeast 459 528 33,000 -403 Descending Washington Center
Sun 11:37:42 AM 35.8139 -77.3183 32° Northeast 459 528 33,000  Level Washington Center
Sun 11:43:09 AM 36.4283 -76.8262 34° Northeast 464 534 33,000 -50 Level FlightAware ADS-B (KWWD)
Sun 11:43:41 AM 36.4863 -76.7792 33° Northeast 464 534 32,700 -771 Descending FlightAware ADS-B (KWWD)
Sun 11:44:19 AM 36.5538 -76.7241 33° Northeast 464 534 32,100 -957 Descending FlightAware ADS-B (KWWD)
Sun 11:45:15 AM 36.6531 -76.6429 33° Northeast 461 531 31,200 -907 Descending FlightAware ADS-B (KWWD)
Sun 11:45:45 AM 36.7026 -76.6027 34° Northeast 450 518 30,800 -909 Descending FlightAware ADS-B (KWWD)
Sun 11:46:21 AM 36.7669 -76.5502 34° Northeast 450 518 30,200 -886 Descending FlightAware ADS-B (KWWD)
Sun 11:47:13 AM 36.8614 -76.4729 34° Northeast 445 512 29,500 -791 Descending FlightAware ADS-B (KWWD)
Sun 11:47:52 AM 36.9237 -76.4217 34° Northeast 445 512 29,000 -423 Descending FlightAware ADS-B (KWWD)
Sun 11:48:24 AM 36.9850 -76.3713 33° Northeast 441 507 29,000  Level FlightAware ADS-B (KWWD)
Sun 11:49:08 AM 37.0591 -76.3098 34° Northeast 441 507 29,000  Level FlightAware ADS-B (KWWD)
Sun 11:50:18 AM 37.1772 -76.2111 34° Northeast 441 507 29,000  Level FlightAware ADS-B (KWWD)
Sun 11:50:50 AM 37.2320 -76.1655 34° Northeast 434 499 29,000  Level FlightAware ADS-B (KWWD)
Sun 11:51:21 AM 37.2855 -76.1205 34° Northeast 441 507 29,000  Level FlightAware ADS-B (KWWD)
Sun 11:51:53 AM 37.3327 -76.0810 34° Northeast 441 507 29,000  Level FlightAware ADS-B (KWWD)
Sun 11:52:23 AM 37.3895 -76.0334 34° Northeast 442 509 29,000  Level FlightAware ADS-B (KWWD)
Sun 11:52:54 AM 37.4430 -75.9888 34° Northeast 442 509 29,000  Level FlightAware ADS-B (KWWD)
Sun 11:53:30 AM 37.4989 -75.9414 34° Northeast 443 510 29,000  Level FlightAware ADS-B (KWWD)
Sun 11:54:01 AM 37.5573 -75.8923 34° Northeast 445 512 29,000  Level FlightAware ADS-B (KWWD)
Sun 11:54:33 AM 37.6112 -75.8469 34° Northeast 444 511 29,000  Level FlightAware ADS-B (KWWD)
Sun 11:55:10 AM 37.6749 -75.7936 31° Northeast 432 497 29,000  Level FlightAware ADS-B (KWWD)
Sun 11:55:42 AM 37.7318 -75.7538 28° Northeast 437 503 29,000  Level FlightAware ADS-B (KWWD)
Sun 11:56:13 AM 37.7856 -75.7172 29° Northeast 438 504 29,000  Level FlightAware ADS-B (KWWD)
Sun 11:56:45 AM 37.8438 -75.6766 30° Northeast 431 496 29,000  Level FlightAware ADS-B (KWWD)
Sun 11:57:21 AM 37.9076 -75.6307 30° Northeast 432 497 29,000  Level FlightAware ADS-B (KWWD)
Sun 11:57:55 AM 37.9672 -75.5875 30° Northeast 432 497 29,000  Level FlightAware ADS-B (KWWD)
Sun 11:58:33 AM 38.0338 -75.5394 30° Northeast 432 497 29,000 -257 Level FlightAware ADS-B (KWWD)
Sun 11:59:05 AM 38.0900 -75.4991 30° Northeast 431 496 28,700 -1,583 Descending FlightAware ADS-B (KWWD)
Sun 11:59:45 AM 38.1600 -75.4484 30° Northeast 424 488 27,100 -2,451 Descending FlightAware ADS-B (KWWD)
Sun 12:00:16 PM 38.2130 -75.4103 30° Northeast 429 494 25,800 -2,522 Descending FlightAware ADS-B (KWWD)
Sun 12:00:54 PM 38.2788 -75.3629 30° Northeast 413 475 24,200 -2,522 Descending FlightAware ADS-B (KWWD)
Sun 12:01:25 PM 38.3310 -75.3252 30° Northeast 412 474 22,900 -2,459 Descending FlightAware ADS-B (KWWD)
Sun 12:01:55 PM 38.3796 -75.2902 30° Northeast 396 456 21,700 -2,262 Descending FlightAware ADS-B (KWWD)
Sun 12:02:26 PM 38.4286 -75.2546 30° Northeast 388 447 20,600 -2,229 Descending FlightAware ADS-B (KWWD)
Sun 12:03:05 PM 38.4906 -75.2098 30° Northeast 386 444 19,100 -2,348 Descending FlightAware ADS-B (KWWD)
Sun 12:03:35 PM 38.5376 -75.1757 30° Northeast 372 428 17,900 -2,400 Descending FlightAware ADS-B (KWWD)
Sun 12:04:15 PM 38.5977 -75.1319 30° Northeast 376 433 16,300 -2,231 Descending FlightAware ADS-B (KWWD)
Sun 12:04:53 PM 38.6547 -75.0911 28° Northeast 365 420 15,000 -1,183 Descending FlightAware ADS-B (KWWD)
Sun 12:05:26 PM 38.7043 -75.0637 18° North 337 388 14,900 -95 Descending FlightAware ADS-B (KWWD)
Sun 12:05:56 PM 38.7500 -75.0516 North 322 371 14,900  Level FlightAware ADS-B (KWWD)
Sun 12:06:26 PM 38.7952 -75.0471 North 325 374 14,900  Level FlightAware ADS-B (KWWD)
Sun 12:06:56 PM 38.8396 -75.0431 North 326 375 14,900 -469 Level FlightAware ADS-B (KWWD)
Sun 12:07:30 PM 38.8916 -75.0382 North 325 374 14,400 -806 Descending FlightAware ADS-B (KPHL)
Sun 12:08:03 PM 38.9407 -75.0330 North 311 358 14,000 -750 Descending FlightAware ADS-B (KWWD)
Sun 12:08:34 PM 38.9870 -75.0280 North 325 374 13,600 -822 Descending FlightAware ADS-B (KPHL)
Sun 12:09:16 PM 39.0497 -75.0213 North 324 373 13,000 -833 Descending FlightAware ADS-B (KWWD)
Sun 12:09:46 PM 39.0916 -75.0170 North 305 351 12,600 -837 Descending FlightAware ADS-B (KWWD)
Sun 12:09:59 PM 39.1125 -75.0152 North 305 351 12,400 -840 Descending FlightAware ADS-B (KWWD)
Sun 12:10:36 PM 39.1666 -75.0100 North 310 357 11,900 -1,433 Descending FlightAware ADS-B (KWWD)
Sun 12:11:06 PM 39.2119 -75.0059 North 325 374 10,800 -1,700 Descending FlightAware ADS-B (KWWD)
Sun 12:11:36 PM 39.2545 -75.0018 North 305 351 10,200 -1,200 Descending FlightAware ADS-B (KWWD)
Sun 12:11:56 PM 39.2825 -74.9997 North 293 337 9,800 -1,200 Descending FlightAware ADS-B (KWWD)
Sun 12:12:16 PM 39.3088 -74.9978 North 274 315 9,400 -1,050 Descending FlightAware ADS-B (KWWD)
Sun 12:12:36 PM 39.3352 -74.9960 North 273 314 9,100 -638 Descending FlightAware ADS-B (KWWD)
Sun 12:13:03 PM 39.2979 -74.9987 North 281 323 8,900 -870 Descending FlightAware ADS-B (KPHL)
Sun 12:14:47 PM 39.4890 -74.9933 North 240 276 7,200 -1,016 Descending FlightAware ADS-B (KWWD)
Sun 12:15:07 PM 39.5118 -74.9929 North 239 275 6,800 -1,385 Descending FlightAware ADS-B (KWWD)
Sun 12:15:26 PM 39.5336 -74.9927 North 246 283 6,300 -1,350 Descending FlightAware ADS-B (KWWD)
Sun 12:15:47 PM 39.5580 -74.9925 North 234 269 5,900 -857 Descending FlightAware ADS-B (KWWD)
Sun 12:15:54 PM 39.5659 -74.9925 360° North 255 293 5,900  Level FlightAware ADS-B (KWWD)
Sun 12:16:07 PM 39.5819 -74.9925 North 246 283 5,900  Level FlightAware ADS-B (KWWD)
Sun 12:16:24 PM 39.6021 -74.9923 North 245 282 5,900  Level FlightAware ADS-B (KWWD)
Sun 12:16:47 PM 39.6284 -74.9920 North 245 282 5,900  Level FlightAware ADS-B (KWWD)
Sun 12:17:05 PM 39.6500 -74.9918 North 245 282 5,900  Level FlightAware ADS-B (KWWD)
Sun 12:17:28 PM 39.6759 -74.9917 360° North 241 277 5,900  Level FlightAware ADS-B (KWWD)
Sun 12:17:47 PM 39.6974 -74.9918 360° North 241 277 5,900  Level FlightAware ADS-B (KWWD)
Sun 12:18:05 PM 39.7181 -74.9918 360° North 232 267 5,900 -176 Level FlightAware ADS-B (KPHL)
Sun 12:18:21 PM 39.7322 -74.9918 360° North 219 252 5,800 -261 Descending FlightAware ADS-B (KPHL)
Sun 12:18:28 PM 39.7419 -74.9918 North 208 239 5,800 -462 Level FlightAware ADS-B (KWWD)
Sun 12:18:34 PM 39.7478 -74.9917 North 213 245 5,700 -667 Descending FlightAware ADS-B (KWWD)
Sun 12:18:46 PM 39.7602 -74.9929 358° North 210 242 5,600 -938 Descending FlightAware ADS-B (KWWD)
Sun 12:19:06 PM 39.7764 -74.9985 342° North 205 236 5,200 -1,385 Descending FlightAware ADS-B (KPHL)
Sun 12:19:25 PM 39.7957 -75.0069 341° North 206 237 4,700 -1,538 Descending FlightAware ADS-B (KWWD)
Sun 12:19:45 PM 39.8136 -75.0148 342° North 206 237 4,200 -1,579 Descending FlightAware ADS-B (KWWD)
Sun 12:20:03 PM 39.8258 -75.0200 341° North 205 236 3,700 -1,500 Descending FlightAware ADS-B (KPHL)
Sun 12:20:21 PM 39.8407 -75.0267 341° North 202 232 3,300 -1,091 Descending FlightAware ADS-B (KPHL)
Sun 12:20:36 PM 39.8584 -75.0345 341° North 187 215 3,100 -600 Descending FlightAware ADS-B (KWWD)
Sun 12:20:51 PM 39.8706 -75.0400 338° Northwest 186 214 3,000 -585 Descending FlightAware ADS-B (KPHL)
Sun 12:21:17 PM 39.8890 -75.0564 311° West 172 198 2,700 -882 Descending FlightAware ADS-B (KWWD)
Sun 12:21:25 PM 39.8929 -75.0632 303° West 175 201 2,500 -1,000 Descending FlightAware ADS-B (KWWD)
Sun 12:21:47 PM 39.9001 -75.0831 287° West 163 188 2,200 -750 Descending FlightAware ADS-B (KWWD)
Sun 12:22:05 PM 39.9030 -75.1006 277° West 155 178 2,000 -811 Descending FlightAware ADS-B (KPHL)
Sun 12:22:24 PM 39.9034 -75.1175 268° West 146 168 1,700 -700 Descending FlightAware ADS-B (KWWD)
Sun 12:23:05 PM 39.9003 -75.1506 257° West 138 159 1,300 -750 Descending FlightAware ADS-B (KPHL)
Sun 12:23:20 PM 39.8975 -75.1635 256° West 137 158 1,000 -1,000 Descending FlightAware ADS-B (KPHL)
Sun 12:23:35 PM 39.8972 -75.1652 256° West 141 162 800 -720 Descending FlightAware ADS-B (KPHL)
Sun 12:24:35 PM 39.8861 -75.2230 256° West 141 162 100 -700 Descending FlightAware ADS-B (KPHL)

Login

Don't have an account? Register now (free) for customized features, flight alerts, and more!